Time;durP1;ratioP1;P1;durP2;ratioP2;P2;SDS_P1;SDS_P2;PMS_P1;PMS_P2;Temp;Humidity;BMP_temperature;BMP_pressure;BME280_temperature;BME280_humidity;BME280_pressure;Samples;Min_cycle;Max_cycle;Signal;HPM_P1;HPM_P2
2023/08/06 00:00:28;;;;;;;3.67;2.20;;;17.90;99.90;;;;;;4995976;28;20186;-68
2023/08/06 00:02:53;;;;;;;3.22;2.20;;;17.90;99.90;;;;;;4993135;28;20180;-67
2023/08/06 00:05:21;;;;;;;2.80;2.33;;;17.80;99.90;;;;;;4995284;28;20183;-68
2023/08/06 00:07:52;;;;;;;2.85;2.38;;;17.80;99.90;;;;;;4977406;28;20184;-66
2023/08/06 00:10:18;;;;;;;2.53;2.30;;;17.80;99.90;;;;;;4988021;28;20175;-66
2023/08/06 00:12:44;;;;;;;3.95;2.42;;;17.70;99.90;;;;;;4991662;28;20215;-66
2023/08/06 00:15:10;;;;;;;2.90;2.60;;;17.70;99.90;;;;;;4981831;28;20219;-66
2023/08/06 00:17:39;;;;;;;3.20;2.80;;;17.60;99.90;;;;;;4981628;28;20207;-67
2023/08/06 00:20:06;;;;;;;3.00;2.70;;;17.60;99.90;;;;;;4990948;28;20192;-66
2023/08/06 00:22:36;;;;;;;2.75;2.50;;;17.50;99.90;;;;;;4978115;28;20267;-65
2023/08/06 00:25:05;;;;;;;2.70;2.35;;;17.50;99.90;;;;;;4994515;28;20502;-66
2023/08/06 00:27:33;;;;;;;2.85;2.33;;;17.50;99.90;;;;;;4994338;28;21943;-66
2023/08/06 00:29:59;;;;;;;3.55;2.45;;;17.50;99.90;;;;;;5000251;28;20202;-66
2023/08/06 00:32:25;;;;;;;4.07;2.42;;;17.50;99.90;;;;;;4995423;28;20190;-66
2023/08/06 00:34:52;;;;;;;3.67;2.60;;;17.50;99.90;;;;;;4992087;28;20195;-67
2023/08/06 00:37:18;;;;;;;3.85;2.60;;;17.50;99.90;;;;;;4991842;28;20200;-66
2023/08/06 00:39:47;;;;;;;2.58;2.38;;;17.50;99.90;;;;;;4996848;28;20245;-67
2023/08/06 00:42:12;;;;;;;2.78;2.47;;;17.50;99.90;;;;;;4991263;28;20180;-67
2023/08/06 00:44:38;;;;;;;3.55;2.40;;;17.50;99.90;;;;;;4983819;28;20195;-66
2023/08/06 00:47:07;;;;;;;4.43;2.65;;;17.50;99.90;;;;;;4992528;28;20183;-66
2023/08/06 00:49:38;;;;;;;3.63;2.47;;;17.50;99.90;;;;;;4994577;28;20190;-67
2023/08/06 00:52:07;;;;;;;2.60;2.40;;;17.60;99.90;;;;;;4991657;28;20199;-65
2023/08/06 00:54:37;;;;;;;2.90;2.60;;;17.60;99.90;;;;;;4975606;28;20302;-67
2023/08/06 00:57:04;;;;;;;3.40;2.42;;;17.60;99.90;;;;;;4989002;28;20176;-66
2023/08/06 00:59:31;;;;;;;3.53;2.90;;;17.60;99.90;;;;;;4991685;28;20172;-67
2023/08/06 01:01:57;;;;;;;3.13;2.83;;;17.60;99.90;;;;;;4994472;28;20175;-67
2023/08/06 01:04:26;;;;;;;3.38;2.60;;;17.70;99.90;;;;;;4989668;28;20322;-66
2023/08/06 01:07:18;;;;;;;3.00;2.53;;;17.70;99.90;;;;;;4994394;28;20191;-67
2023/08/06 01:10:14;;;;;;;3.05;2.75;;;17.70;99.90;;;;;;4994156;28;20176;-65
2023/08/06 01:13:12;;;;;;;2.80;2.13;;;17.70;99.90;;;;;;4986644;28;20277;-65
2023/08/06 01:15:54;;;;;;;4.18;2.30;;;17.70;99.90;;;;;;4987264;28;20219;-66
2023/08/06 01:18:24;;;;;;;2.90;2.22;;;17.70;99.90;;;;;;5007894;28;20174;-67
2023/08/06 01:20:52;;;;;;;2.63;2.25;;;17.70;99.90;;;;;;4995442;28;20233;-65
2023/08/06 01:23:21;;;;;;;2.60;2.40;;;17.70;99.90;;;;;;4993986;28;20179;-67
2023/08/06 01:26:24;;;;;;;2.47;2.17;;;17.70;99.90;;;;;;4994157;28;20175;-66
2023/08/06 01:29:05;;;;;;;3.40;2.08;;;17.70;99.90;;;;;;4964864;28;20212;-65
2023/08/06 01:31:35;;;;;;;2.92;2.10;;;17.70;99.90;;;;;;4991295;28;20182;-65
2023/08/06 01:34:02;;;;;;;2.20;2.00;;;17.70;99.90;;;;;;4983206;28;20242;-66
2023/08/06 01:36:30;;;;;;;2.58;2.10;;;17.70;99.90;;;;;;4995701;28;20176;-66
2023/08/06 01:38:57;;;;;;;2.20;2.00;;;17.60;99.90;;;;;;4988829;28;20175;-66
2023/08/06 01:41:23;;;;;;;2.30;2.10;;;17.60;99.90;;;;;;4998185;28;20262;-66
2023/08/06 01:43:51;;;;;;;2.33;1.90;;;17.60;99.90;;;;;;4998330;28;20246;-66
2023/08/06 01:46:19;;;;;;;3.22;1.80;;;17.60;99.90;;;;;;4998444;28;20334;-66
2023/08/06 01:48:45;;;;;;;2.90;2.00;;;17.60;99.90;;;;;;4998249;28;20195;-66
2023/08/06 01:51:12;;;;;;;2.42;2.03;;;17.60;99.90;;;;;;4998820;28;20181;-66
2023/08/06 01:53:43;;;;;;;1.85;1.60;;;17.60;99.90;;;;;;4998730;28;20262;-66
2023/08/06 01:56:13;;;;;;;2.90;1.67;;;17.50;99.90;;;;;;4998722;28;20202;-65
2023/08/06 01:58:41;;;;;;;2.20;1.90;;;17.50;99.90;;;;;;4998349;28;20266;-66
2023/08/06 02:01:06;;;;;;;2.53;2.10;;;17.50;99.90;;;;;;4998705;28;20175;-65
2023/08/06 02:03:32;;;;;;;3.70;1.88;;;17.40;99.90;;;;;;4998040;28;20226;-66
2023/08/06 02:05:58;;;;;;;2.53;1.80;;;17.40;99.90;;;;;;4997182;28;20226;-66
2023/08/06 02:08:25;;;;;;;3.42;2.13;;;17.40;99.90;;;;;;4997634;28;20182;-66
2023/08/06 02:10:53;;;;;;;2.67;2.08;;;17.40;99.90;;;;;;4994322;28;20172;-66
2023/08/06 02:13:19;;;;;;;2.40;2.13;;;17.30;99.90;;;;;;4994671;28;20226;-66
2023/08/06 02:15:47;;;;;;;2.58;2.05;;;17.30;99.90;;;;;;4994320;28;20207;-66
2023/08/06 02:18:16;;;;;;;2.50;2.15;;;17.30;99.90;;;;;;4995834;28;20465;-66
2023/08/06 02:20:42;;;;;;;2.28;1.98;;;17.30;99.90;;;;;;4997733;28;20275;-66
2023/08/06 02:23:10;;;;;;;2.55;2.03;;;17.30;99.90;;;;;;4984623;28;20164;-66
2023/08/06 02:25:36;;;;;;;2.08;1.80;;;17.30;99.90;;;;;;4993875;28;20179;-66
2023/08/06 02:28:03;;;;;;;2.60;2.20;;;17.40;99.90;;;;;;4997326;28;20179;-66
2023/08/06 02:30:31;;;;;;;2.33;2.10;;;17.30;99.90;;;;;;4997575;28;20253;-66
2023/08/06 02:32:57;;;;;;;2.33;2.08;;;17.30;99.90;;;;;;4997337;28;20248;-66
2023/08/06 02:35:23;;;;;;;2.50;2.10;;;17.30;99.90;;;;;;4993950;28;20200;-66
2023/08/06 02:37:48;;;;;;;2.40;2.10;;;17.30;99.90;;;;;;4977806;28;20295;-66
2023/08/06 02:40:14;;;;;;;2.63;2.00;;;17.30;99.90;;;;;;4992145;28;20176;-66
2023/08/06 02:42:42;;;;;;;4.40;2.10;;;17.40;99.90;;;;;;4993830;28;20176;-66
2023/08/06 02:45:08;;;;;;;3.35;2.10;;;17.30;99.90;;;;;;4995523;28;20183;-66
2023/08/06 02:47:38;;;;;;;2.15;1.92;;;17.30;99.90;;;;;;4995436;28;20194;-66
2023/08/06 02:50:07;;;;;;;2.35;2.15;;;17.40;99.90;;;;;;4997188;28;20171;-66
2023/08/06 02:52:33;;;;;;;2.65;2.45;;;17.40;99.90;;;;;;4997142;28;20266;-66
2023/08/06 02:55:00;;;;;;;2.53;2.22;;;17.40;99.90;;;;;;4996938;28;20303;-66
2023/08/06 02:57:26;;;;;;;3.25;2.45;;;17.40;99.90;;;;;;4996528;28;20167;-66
2023/08/06 02:59:52;;;;;;;3.40;2.60;;;17.40;99.90;;;;;;4997033;28;20171;-66
2023/08/06 03:02:17;;;;;;;2.90;2.33;;;17.40;99.90;;;;;;4996761;28;20179;-66
2023/08/06 03:04:45;;;;;;;3.25;2.58;;;17.40;99.90;;;;;;4993690;28;20195;-66
2023/08/06 03:07:13;;;;;;;3.83;2.55;;;17.40;99.90;;;;;;4996854;28;20210;-66
2023/08/06 03:09:41;;;;;;;3.08;2.55;;;17.40;99.90;;;;;;4996598;28;20186;-67
2023/08/06 03:12:09;;;;;;;3.60;2.30;;;17.40;99.90;;;;;;4996940;28;20261;-66
2023/08/06 03:14:34;;;;;;;2.65;2.38;;;17.40;99.90;;;;;;4996632;28;20195;-65
2023/08/06 03:17:05;;;;;;;3.08;2.40;;;17.40;99.90;;;;;;4996491;28;20175;-66
2023/08/06 03:19:33;;;;;;;2.90;2.55;;;17.40;99.90;;;;;;4990825;28;20183;-66
2023/08/06 03:21:58;;;;;;;3.20;2.25;;;17.40;99.90;;;;;;4994481;28;20172;-66
2023/08/06 03:24:26;;;;;;;2.60;2.28;;;17.40;99.90;;;;;;4993216;28;20186;-66
2023/08/06 03:26:52;;;;;;;3.58;2.33;;;17.40;99.90;;;;;;4979862;28;20203;-66
2023/08/06 03:29:18;;;;;;;3.00;2.50;;;17.40;99.90;;;;;;4996374;28;20203;-67
2023/08/06 03:31:43;;;;;;;3.42;2.42;;;17.40;99.90;;;;;;4995867;28;20262;-66
2023/08/06 03:34:09;;;;;;;4.00;2.90;;;17.40;99.90;;;;;;4995767;28;20233;-66
2023/08/06 03:36:34;;;;;;;3.50;2.25;;;17.40;99.90;;;;;;4996747;28;20198;-67
2023/08/06 03:39:02;;;;;;;4.20;2.22;;;17.40;99.90;;;;;;4996375;28;20226;-66
2023/08/06 03:41:31;;;;;;;2.90;2.10;;;17.40;99.90;;;;;;4995696;28;20194;-65
2023/08/06 03:44:00;;;;;;;3.10;2.40;;;17.40;99.90;;;;;;4994535;28;20180;-66
2023/08/06 03:46:26;;;;;;;2.90;2.50;;;17.40;99.90;;;;;;4993456;28;20207;-66
2023/08/06 03:48:52;;;;;;;2.90;2.45;;;17.40;99.90;;;;;;4996012;28;20214;-66
2023/08/06 03:51:17;;;;;;;3.47;2.33;;;17.40;99.90;;;;;;4996384;28;20191;-66
2023/08/06 03:53:43;;;;;;;3.97;2.25;;;17.40;99.90;;;;;;4996583;28;20171;-65
2023/08/06 03:56:11;;;;;;;3.72;2.10;;;17.40;99.90;;;;;;4996079;28;20172;-66
2023/08/06 03:58:36;;;;;;;2.28;2.00;;;17.40;99.90;;;;;;4995795;28;20171;-66
2023/08/06 04:01:04;;;;;;;3.35;2.50;;;17.40;99.90;;;;;;4996153;28;20230;-66
2023/08/06 04:03:30;;;;;;;2.67;2.10;;;17.50;99.90;;;;;;4994852;28;20257;-66
2023/08/06 04:05:56;;;;;;;3.67;2.22;;;17.40;99.90;;;;;;4993037;28;20171;-66
2023/08/06 04:08:21;;;;;;;2.88;1.83;;;17.40;99.90;;;;;;4978330;28;20176;-66
2023/08/06 04:10:52;;;;;;;3.58;2.25;;;17.40;99.90;;;;;;4993111;28;20179;-67
2023/08/06 04:13:18;;;;;;;7.28;2.40;;;17.40;99.90;;;;;;4991942;28;20218;-66
2023/08/06 04:15:46;;;;;;;2.42;1.90;;;17.40;99.90;;;;;;4992301;28;20195;-65
2023/08/06 04:18:14;;;;;;;3.22;2.03;;;17.40;99.90;;;;;;4995189;28;20190;-66
2023/08/06 04:20:45;;;;;;;2.53;2.03;;;17.40;99.90;;;;;;4995360;28;20199;-64
2023/08/06 04:23:12;;;;;;;2.72;2.30;;;17.40;99.90;;;;;;4990486;28;20249;-66
2023/08/06 04:25:38;;;;;;;2.83;1.95;;;17.40;99.90;;;;;;4995374;28;20195;-66
2023/08/06 04:28:07;;;;;;;3.33;2.00;;;17.40;99.90;;;;;;4993733;28;20206;-66
2023/08/06 04:30:33;;;;;;;2.58;1.80;;;17.40;99.90;;;;;;4993879;28;20249;-65
2023/08/06 04:33:03;;;;;;;2.42;1.90;;;17.40;99.90;;;;;;4988702;28;20208;-71
2023/08/06 04:35:29;;;;;;;1.75;1.60;;;17.40;99.90;;;;;;4988552;28;20207;-71
2023/08/06 04:37:54;;;;;;;2.45;1.75;;;17.40;99.90;;;;;;4993840;28;20187;-71
2023/08/06 04:40:20;;;;;;;2.20;1.50;;;17.40;99.90;;;;;;4990531;28;20180;-71
2023/08/06 04:42:45;;;;;;;2.15;1.70;;;17.40;99.90;;;;;;4992525;28;20202;-71
2023/08/06 04:45:13;;;;;;;2.65;1.90;;;17.30;99.90;;;;;;4991307;28;20191;-70
2023/08/06 04:47:41;;;;;;;2.35;1.50;;;17.30;99.90;;;;;;4992950;28;20357;-71
2023/08/06 04:50:07;;;;;;;2.28;1.65;;;17.30;99.90;;;;;;4994517;28;20262;-71
2023/08/06 04:52:33;;;;;;;2.00;1.40;;;17.30;99.90;;;;;;4991969;28;20183;-69
2023/08/06 04:55:01;;;;;;;1.50;1.40;;;17.30;99.90;;;;;;4994966;28;20226;-71
2023/08/06 04:57:26;;;;;;;1.50;1.40;;;17.30;99.90;;;;;;4994374;28;20187;-70
2023/08/06 04:59:52;;;;;;;2.67;1.67;;;17.30;99.90;;;;;;4992844;28;20450;-70
2023/08/06 05:02:18;;;;;;;2.05;1.70;;;17.30;99.90;;;;;;4986623;28;20192;-71
2023/08/06 05:04:43;;;;;;;2.15;1.65;;;17.30;99.90;;;;;;4987802;28;20199;-70
2023/08/06 05:07:10;;;;;;;1.50;1.38;;;17.30;99.90;;;;;;4992974;28;20176;-70
2023/08/06 05:09:36;;;;;;;1.98;1.52;;;17.20;99.90;;;;;;4992775;28;20206;-71
2023/08/06 05:12:04;;;;;;;2.00;1.65;;;17.20;99.90;;;;;;4990717;28;20204;-70
2023/08/06 05:14:30;;;;;;;2.72;1.58;;;17.20;99.90;;;;;;4999135;28;20220;-70
2023/08/06 05:16:56;;;;;;;1.73;1.30;;;17.20;99.90;;;;;;4997182;28;20337;-70
2023/08/06 05:19:24;;;;;;;1.83;1.30;;;17.10;99.90;;;;;;4994128;28;20199;-70
2023/08/06 05:21:49;;;;;;;2.30;1.20;;;17.10;99.90;;;;;;4991166;28;20247;-71
2023/08/06 05:24:17;;;;;;;1.70;1.35;;;17.10;99.90;;;;;;4990999;28;20270;-70
2023/08/06 05:26:46;;;;;;;2.17;1.40;;;17.20;99.90;;;;;;4994179;28;20199;-70
2023/08/06 05:29:12;;;;;;;2.55;1.33;;;17.20;99.90;;;;;;4994014;28;20171;-70
2023/08/06 05:31:37;;;;;;;2.38;1.50;;;17.20;99.90;;;;;;4992572;28;20279;-70
2023/08/06 05:34:03;;;;;;;2.17;1.40;;;17.20;99.90;;;;;;4985332;28;20211;-69
2023/08/06 05:36:28;;;;;;;2.17;1.40;;;17.20;99.90;;;;;;4993940;28;20285;-70
2023/08/06 05:38:54;;;;;;;1.50;1.40;;;17.20;99.90;;;;;;4984842;28;20176;-70
2023/08/06 05:41:20;;;;;;;3.20;1.35;;;17.20;99.90;;;;;;4988145;28;20222;-70
2023/08/06 05:43:45;;;;;;;2.20;1.70;;;17.20;99.90;;;;;;4989681;28;20250;-70
2023/08/06 05:46:11;;;;;;;2.40;1.40;;;17.30;99.90;;;;;;4977930;28;20226;-70
2023/08/06 05:48:36;;;;;;;1.88;1.23;;;17.30;99.90;;;;;;4988828;28;20206;-70
2023/08/06 05:51:02;;;;;;;2.75;1.90;;;17.30;99.90;;;;;;4987238;28;20184;-70
2023/08/06 05:53:28;;;;;;;2.00;1.50;;;17.30;99.90;;;;;;4987235;28;20198;-70
2023/08/06 05:55:53;;;;;;;2.08;1.27;;;17.40;99.90;;;;;;4993871;28;20328;-70
2023/08/06 05:58:21;;;;;;;1.95;1.30;;;17.40;99.90;;;;;;4993315;28;20184;-71
2023/08/06 06:00:47;;;;;;;1.70;1.15;;;17.40;99.90;;;;;;4992775;28;20250;-70
2023/08/06 06:03:17;;;;;;;1.52;1.20;;;17.40;99.90;;;;;;4990503;28;20192;-70
2023/08/06 06:05:43;;;;;;;1.40;1.00;;;17.40;99.90;;;;;;4987091;28;20180;-70
2023/08/06 06:08:11;;;;;;;1.48;1.10;;;17.40;99.90;;;;;;4989527;28;20183;-70
2023/08/06 06:10:41;;;;;;;2.05;1.20;;;17.30;99.90;;;;;;4992463;28;20222;-70
2023/08/06 06:13:07;;;;;;;2.25;1.83;;;17.40;99.90;;;;;;4979409;28;20276;-70
2023/08/06 06:15:35;;;;;;;2.85;2.33;;;17.40;99.90;;;;;;4993669;28;20246;-71
2023/08/06 06:18:00;;;;;;;1.75;1.55;;;17.40;99.90;;;;;;5009933;28;20198;-71
2023/08/06 06:20:26;;;;;;;1.58;1.20;;;17.40;99.90;;;;;;4992790;28;20198;-71
2023/08/06 06:22:51;;;;;;;1.77;1.00;;;17.40;99.90;;;;;;4994680;28;20203;-70
2023/08/06 06:25:17;;;;;;;1.23;1.05;;;17.40;99.90;;;;;;4994062;28;20235;-70
2023/08/06 06:27:45;;;;;;;1.35;1.08;;;17.40;99.90;;;;;;4984410;28;20180;-70
2023/08/06 06:30:12;;;;;;;1.00;0.80;;;17.40;99.90;;;;;;4992042;28;20180;-70
2023/08/06 06:32:40;;;;;;;1.30;0.85;;;17.50;99.90;;;;;;4985715;28;20207;-71
2023/08/06 06:35:06;;;;;;;2.38;1.00;;;17.50;99.90;;;;;;4990205;28;20206;-70
2023/08/06 06:37:32;;;;;;;1.08;0.70;;;17.50;99.90;;;;;;4991067;28;20184;-70
2023/08/06 06:39:58;;;;;;;1.77;0.80;;;17.50;99.90;;;;;;4995413;28;20203;-71
2023/08/06 06:42:23;;;;;;;0.85;0.60;;;17.50;99.90;;;;;;4991471;28;20187;-70
2023/08/06 06:44:54;;;;;;;1.40;0.70;;;17.50;99.90;;;;;;4988858;28;20184;-70
2023/08/06 06:47:22;;;;;;;1.17;0.88;;;17.60;99.90;;;;;;4995815;28;20290;-71
2023/08/06 06:49:47;;;;;;;1.25;0.90;;;17.60;99.90;;;;;;4997635;28;20183;-70
2023/08/06 06:52:14;;;;;;;0.80;0.80;;;17.60;99.90;;;;;;4993251;28;20176;-70
2023/08/06 06:54:42;;;;;;;0.68;0.68;;;17.60;99.90;;;;;;4982511;28;20196;-70
2023/08/06 06:57:08;;;;;;;2.00;0.90;;;17.60;99.90;;;;;;4997084;28;20509;-70
2023/08/06 06:59:36;;;;;;;1.45;0.70;;;17.70;99.90;;;;;;4997117;28;20235;-71
2023/08/06 07:02:05;;;;;;;1.02;0.65;;;17.70;99.90;;;;;;4988355;28;20195;-72
2023/08/06 07:04:30;;;;;;;0.80;0.70;;;17.80;99.90;;;;;;4991365;28;20194;-71
2023/08/06 07:06:58;;;;;;;0.85;0.70;;;17.90;99.90;;;;;;4986517;28;20176;-70
2023/08/06 07:09:24;;;;;;;0.70;0.65;;;17.90;99.90;;;;;;4995738;28;20214;-70
2023/08/06 07:11:51;;;;;;;1.35;0.80;;;18.00;99.90;;;;;;4996745;28;20187;-68
2023/08/06 07:14:17;;;;;;;1.48;0.70;;;18.00;99.90;;;;;;4989090;28;20219;-66
2023/08/06 07:16:45;;;;;;;0.98;0.75;;;18.10;99.90;;;;;;4988659;28;20176;-70
2023/08/06 07:19:13;;;;;;;0.52;0.52;;;18.10;99.90;;;;;;4990822;28;20175;-70
2023/08/06 07:21:40;;;;;;;0.90;0.70;;;18.20;99.90;;;;;;4989304;28;20207;-68
2023/08/06 07:24:08;;;;;;;0.98;0.70;;;18.20;99.90;;;;;;4994293;28;20175;-70
2023/08/06 07:26:34;;;;;;;0.70;0.70;;;18.20;99.90;;;;;;4995620;28;20201;-70
2023/08/06 07:29:01;;;;;;;0.70;0.60;;;18.20;99.90;;;;;;4994759;28;20285;-69
2023/08/06 07:31:27;;;;;;;0.90;0.82;;;18.20;99.90;;;;;;4992247;28;20184;-70
2023/08/06 07:33:53;;;;;;;1.85;0.65;;;18.30;99.90;;;;;;4995217;28;20215;-70
2023/08/06 07:36:18;;;;;;;1.30;0.88;;;18.30;99.90;;;;;;4993906;28;20180;-71
2023/08/06 07:38:44;;;;;;;1.25;0.88;;;18.40;99.90;;;;;;4991640;28;20198;-71
2023/08/06 07:41:10;;;;;;;0.80;0.80;;;18.40;99.90;;;;;;4979634;28;20234;-71
2023/08/06 07:43:35;;;;;;;1.08;0.98;;;18.50;99.90;;;;;;4990317;28;20179;-70
2023/08/06 07:46:01;;;;;;;0.95;0.80;;;18.50;99.90;;;;;;4986076;28;20178;-70
2023/08/06 07:48:31;;;;;;;1.33;0.90;;;18.60;99.90;;;;;;4993846;28;20227;-70
2023/08/06 07:50:57;;;;;;;1.88;0.95;;;18.60;99.90;;;;;;4995812;28;20176;-69
2023/08/06 07:53:23;;;;;;;1.10;1.00;;;18.70;99.90;;;;;;4996489;28;20381;-71
2023/08/06 07:55:55;;;;;;;1.42;1.00;;;18.70;99.90;;;;;;4995926;28;20214;-71
2023/08/06 07:58:21;;;;;;;1.60;1.00;;;18.70;99.90;;;;;;4996256;28;20172;-71
2023/08/06 08:00:47;;;;;;;1.90;1.20;;;18.70;99.90;;;;;;4995875;28;20183;-71
2023/08/06 08:03:15;;;;;;;1.63;1.00;;;18.80;99.90;;;;;;4994590;28;20212;-69
2023/08/06 08:05:44;;;;;;;1.38;1.10;;;18.80;99.90;;;;;;4992847;28;20171;-72
2023/08/06 08:08:10;;;;;;;1.33;0.90;;;18.80;99.90;;;;;;4985930;28;20204;-71
2023/08/06 08:10:41;;;;;;;1.23;1.10;;;18.80;99.90;;;;;;4992919;28;20187;-71
2023/08/06 08:13:06;;;;;;;1.25;1.10;;;18.80;99.90;;;;;;4992771;28;20180;-71
2023/08/06 08:15:35;;;;;;;1.55;1.20;;;18.70;99.90;;;;;;5006316;28;20241;-71
2023/08/06 08:18:03;;;;;;;1.02;0.93;;;18.70;99.90;;;;;;4994645;28;20230;-70
2023/08/06 08:20:31;;;;;;;1.75;1.10;;;18.70;99.90;;;;;;4986436;28;20180;-71
2023/08/06 08:23:00;;;;;;;1.38;1.27;;;18.70;99.90;;;;;;4991896;28;20210;-72
2023/08/06 08:25:31;;;;;;;1.70;1.52;;;18.70;99.90;;;;;;4987173;28;20187;-75
2023/08/06 08:27:59;;;;;;;2.50;1.20;;;18.70;99.90;;;;;;5008621;28;20206;-74
2023/08/06 08:30:32;;;;;;;1.55;1.40;;;18.70;99.90;;;;;;4994644;28;20203;-75
2023/08/06 08:33:00;;;;;;;1.75;1.42;;;18.80;99.90;;;;;;4991782;28;20180;-72
2023/08/06 08:35:25;;;;;;;1.63;1.52;;;18.90;99.90;;;;;;4991119;28;20203;-73
2023/08/06 08:37:51;;;;;;;3.33;1.90;;;18.90;99.90;;;;;;4991717;28;20238;-79
2023/08/06 08:40:21;;;;;;;2.80;1.75;;;19.00;99.90;;;;;;4985276;28;20202;-68
2023/08/06 08:42:49;;;;;;;2.50;1.50;;;19.00;99.90;;;;;;4993493;28;20175;-72
2023/08/06 08:45:20;;;;;;;1.52;1.33;;;19.00;99.90;;;;;;4990320;28;20172;-74
2023/08/06 08:47:47;;;;;;;1.58;1.30;;;19.00;99.90;;;;;;4984907;28;20257;-74
2023/08/06 08:50:14;;;;;;;1.40;1.30;;;18.90;99.90;;;;;;4992645;28;20253;-73
2023/08/06 08:52:40;;;;;;;2.20;1.50;;;18.90;99.90;;;;;;4992729;28;20164;-74
2023/08/06 08:55:07;;;;;;;1.65;1.42;;;18.80;99.90;;;;;;4977391;28;20362;-74
2023/08/06 08:57:35;;;;;;;1.30;1.20;;;18.80;99.90;;;;;;4989821;28;20258;-74
2023/08/06 09:00:01;;;;;;;1.30;1.20;;;18.70;99.90;;;;;;5008655;28;20262;-73
2023/08/06 09:02:33;;;;;;;1.35;1.10;;;18.70;99.90;;;;;;4993698;28;20329;-70
2023/08/06 09:05:02;;;;;;;1.42;1.33;;;18.60;99.90;;;;;;4990131;28;20183;-73
2023/08/06 09:07:36;;;;;;;2.65;1.33;;;18.60;99.90;;;;;;4990913;28;20184;-74
2023/08/06 09:10:04;;;;;;;1.50;1.25;;;18.50;99.90;;;;;;4988656;28;20182;-74
2023/08/06 09:12:32;;;;;;;1.42;1.27;;;18.50;99.90;;;;;;4989070;28;20191;-69
2023/08/06 09:15:03;;;;;;;1.73;1.20;;;18.40;99.90;;;;;;4989509;28;20210;-71
2023/08/06 09:17:29;;;;;;;2.65;1.10;;;18.40;99.90;;;;;;4993275;28;20184;-74
2023/08/06 09:19:54;;;;;;;1.30;1.20;;;18.40;99.90;;;;;;4994983;28;20204;-72
2023/08/06 09:22:23;;;;;;;1.38;1.20;;;18.40;99.90;;;;;;4991206;28;20233;-71
2023/08/06 09:24:49;;;;;;;1.17;1.08;;;18.40;99.90;;;;;;5001640;28;20206;-65
2023/08/06 09:27:15;;;;;;;1.20;1.10;;;18.40;99.90;;;;;;4992048;28;20187;-68
2023/08/06 09:29:42;;;;;;;1.33;1.20;;;18.40;99.90;;;;;;4993361;28;20262;-71
2023/08/06 09:32:12;;;;;;;0.70;0.70;;;18.30;99.90;;;;;;4986782;28;20187;-70
2023/08/06 09:34:43;;;;;;;0.73;0.60;;;18.30;99.90;;;;;;4992495;28;20215;-72
2023/08/06 09:37:11;;;;;;;0.70;0.47;;;18.20;99.90;;;;;;4985467;28;20439;-71
2023/08/06 09:39:39;;;;;;;0.60;0.60;;;18.10;99.90;;;;;;4994519;28;20206;-70
2023/08/06 09:42:07;;;;;;;0.60;0.52;;;18.10;99.90;;;;;;4979907;28;20239;-70
2023/08/06 09:44:39;;;;;;;0.50;0.47;;;18.10;99.90;;;;;;4977517;28;20171;-71
2023/08/06 09:47:09;;;;;;;0.47;0.40;;;18.00;99.90;;;;;;4991202;28;20183;-69
2023/08/06 09:49:35;;;;;;;0.40;0.40;;;18.00;99.90;;;;;;4994093;28;20215;-69
2023/08/06 09:52:04;;;;;;;0.85;0.30;;;18.00;99.90;;;;;;4994702;28;20187;-70
2023/08/06 09:54:31;;;;;;;0.63;0.40;;;17.90;99.90;;;;;;4988820;28;20213;-71
2023/08/06 09:56:59;;;;;;;0.22;0.22;;;17.90;99.90;;;;;;4997788;28;20171;-70
2023/08/06 09:59:25;;;;;;;0.82;0.30;;;17.80;99.90;;;;;;4997696;28;20175;-70
2023/08/06 10:01:53;;;;;;;0.50;0.50;;;17.80;99.90;;;;;;4990966;28;20265;-71
2023/08/06 10:04:20;;;;;;;0.60;0.50;;;17.80;99.90;;;;;;4997410;28;20194;-71
2023/08/06 10:06:51;;;;;;;0.50;0.45;;;17.80;99.90;;;;;;5007993;28;20180;-70
2023/08/06 10:09:20;;;;;;;0.98;0.40;;;17.80;99.90;;;;;;4992633;28;20200;-70
2023/08/06 10:11:50;;;;;;;0.40;0.40;;;17.80;99.90;;;;;;4985774;28;20183;-69
2023/08/06 10:14:28;;;;;;;0.30;0.20;;;17.70;99.90;;;;;;4998011;28;20210;-70
2023/08/06 10:16:56;;;;;;;0.30;0.20;;;17.60;99.90;;;;;;4979939;28;20254;-69
2023/08/06 10:19:23;;;;;;;1.58;0.50;;;17.40;99.90;;;;;;4989503;28;20172;-69
2023/08/06 10:22:15;;;;;;;0.52;0.30;;;17.30;99.90;;;;;;4993868;28;20199;-68
2023/08/06 10:24:46;;;;;;;0.82;0.60;;;17.10;99.90;;;;;;4984185;28;20183;-69
2023/08/06 10:27:12;;;;;;;1.70;0.70;;;16.90;99.90;;;;;;4995901;28;20179;-71
2023/08/06 10:29:40;;;;;;;1.35;0.85;;;16.70;99.90;;;;;;4988440;28;20413;-71
2023/08/06 10:32:08;;;;;;;1.35;1.00;;;16.50;99.90;;;;;;4994882;28;20172;-71
2023/08/06 10:34:52;;;;;;;1.35;1.15;;;16.40;99.90;;;;;;4988933;28;20231;-73
2023/08/06 10:37:19;;;;;;;5.70;1.38;;;16.20;99.90;;;;;;5000979;28;20599;-72
2023/08/06 10:39:54;;;;;;;2.50;1.30;;;16.10;99.90;;;;;;4997725;28;20171;-71
2023/08/06 10:42:30;;;;;;;2.40;1.40;;;15.90;99.90;;;;;;4997374;28;20195;-72
2023/08/06 10:45:16;;;;;;;1.83;1.30;;;15.80;99.90;;;;;;4989973;28;20183;-73
2023/08/06 10:47:43;;;;;;;2.17;1.40;;;15.70;99.90;;;;;;4985430;28;20212;-74
2023/08/06 10:50:18;;;;;;;4.18;1.80;;;15.60;99.90;;;;;;5000554;28;20179;-74
2023/08/06 10:52:47;;;;;;;2.08;1.23;;;15.50;99.90;;;;;;4997497;28;20186;-71
2023/08/06 10:55:25;;;;;;;2.85;1.50;;;15.50;99.90;;;;;;4990758;28;20223;-72
2023/08/06 10:57:51;;;;;;;3.53;1.75;;;15.40;99.90;;;;;;4992432;28;20478;-73
2023/08/06 11:00:17;;;;;;;2.03;1.42;;;15.30;99.90;;;;;;4992399;28;20223;-76
2023/08/06 11:02:46;;;;;;;2.90;1.40;;;15.30;99.90;;;;;;4979569;28;20180;-74
2023/08/06 11:05:12;;;;;;;3.55;1.80;;;15.20;99.90;;;;;;4990646;28;20184;-72
2023/08/06 11:07:38;;;;;;;3.88;1.67;;;15.20;99.90;;;;;;4979924;28;20252;-72
2023/08/06 11:10:06;;;;;;;3.47;1.42;;;15.10;99.90;;;;;;4984334;28;20203;-71
2023/08/06 11:12:32;;;;;;;1.85;1.10;;;15.10;99.90;;;;;;4995810;28;20214;-72
2023/08/06 11:15:01;;;;;;;3.10;1.45;;;15.10;99.90;;;;;;4996431;28;20207;-70
2023/08/06 11:17:28;;;;;;;2.88;1.40;;;15.00;99.90;;;;;;4996844;28;20206;-71
2023/08/06 11:19:54;;;;;;;4.00;1.60;;;15.00;99.90;;;;;;4993763;28;20215;-72
2023/08/06 11:22:21;;;;;;;3.97;1.38;;;15.00;99.90;;;;;;4994154;28;20180;-70
2023/08/06 11:24:48;;;;;;;3.22;1.50;;;14.90;99.90;;;;;;4996113;28;20262;-71
2023/08/06 11:27:19;;;;;;;2.17;1.20;;;15.00;99.90;;;;;;5007870;28;20196;-70
2023/08/06 11:29:49;;;;;;;3.08;1.30;;;14.90;99.90;;;;;;4993640;28;20179;-71
2023/08/06 11:32:15;;;;;;;2.15;1.30;;;14.90;99.90;;;;;;4998931;28;20208;-72
2023/08/06 11:34:43;;;;;;;2.05;1.42;;;14.90;99.90;;;;;;4989824;28;20288;-70
2023/08/06 11:37:10;;;;;;;2.38;1.20;;;14.90;99.90;;;;;;4990177;28;20183;-71
2023/08/06 11:39:37;;;;;;;3.30;1.40;;;15.00;99.90;;;;;;4993201;28;20208;-71
2023/08/06 11:42:04;;;;;;;2.95;1.42;;;15.00;99.90;;;;;;4995210;28;20182;-72
2023/08/06 11:44:45;;;;;;;3.08;1.30;;;15.00;99.90;;;;;;4982162;28;20192;-70
2023/08/06 11:47:14;;;;;;;2.63;1.23;;;15.00;99.90;;;;;;4986394;28;20207;-71
2023/08/06 11:49:40;;;;;;;2.08;1.30;;;15.10;99.90;;;;;;4981262;28;20290;-70
2023/08/06 11:52:20;;;;;;;2.78;1.33;;;15.10;99.90;;;;;;5013258;28;20537;-71
2023/08/06 11:54:47;;;;;;;3.83;1.55;;;15.20;99.90;;;;;;4992639;28;20203;-71
2023/08/06 11:57:15;;;;;;;2.72;1.30;;;15.20;99.90;;;;;;4995549;28;20237;-70
2023/08/06 11:59:41;;;;;;;5.15;1.77;;;15.20;99.90;;;;;;4992086;28;20223;-69
2023/08/06 12:02:10;;;;;;;2.63;1.40;;;15.30;99.90;;;;;;4996008;28;20175;-71
2023/08/06 12:05:02;;;;;;;3.15;1.70;;;15.30;99.90;;;;;;4996068;28;20238;-70
2023/08/06 12:07:45;;;;;;;2.40;1.48;;;15.40;99.90;;;;;;4995753;28;20195;-70
2023/08/06 12:10:13;;;;;;;2.17;1.20;;;15.40;99.90;;;;;;4993300;28;20179;-71
2023/08/06 12:12:41;;;;;;;2.20;1.50;;;15.50;99.90;;;;;;4990637;28;20218;-70
2023/08/06 12:15:08;;;;;;;3.17;1.52;;;15.50;99.90;;;;;;4991427;28;20201;-70
2023/08/06 12:17:37;;;;;;;2.88;1.33;;;15.60;99.90;;;;;;4986229;28;20187;-70
2023/08/06 12:20:04;;;;;;;2.85;1.50;;;15.60;99.90;;;;;;4993310;28;20187;-70
2023/08/06 12:22:35;;;;;;;2.20;1.42;;;15.60;99.90;;;;;;4995603;28;20171;-70
2023/08/06 12:25:12;;;;;;;1.90;1.30;;;15.70;99.90;;;;;;4995260;28;20233;-70
2023/08/06 12:27:41;;;;;;;2.28;1.60;;;15.70;99.90;;;;;;4995434;28;20193;-70
2023/08/06 12:30:08;;;;;;;3.00;1.50;;;15.70;99.90;;;;;;4995394;28;20170;-70
2023/08/06 12:32:41;;;;;;;2.63;1.42;;;15.80;99.90;;;;;;4996737;28;20203;-70
2023/08/06 12:35:07;;;;;;;1.42;1.20;;;15.80;99.90;;;;;;4990249;28;20214;-69
2023/08/06 12:37:36;;;;;;;2.35;1.55;;;15.80;99.90;;;;;;4995372;28;20233;-70
2023/08/06 12:40:04;;;;;;;1.67;1.33;;;15.90;99.90;;;;;;4990132;28;20180;-71
2023/08/06 12:42:30;;;;;;;1.60;1.23;;;15.90;99.90;;;;;;4993786;28;20183;-69
2023/08/06 12:44:56;;;;;;;2.92;1.27;;;16.00;99.90;;;;;;4992009;28;20199;-69
2023/08/06 12:47:26;;;;;;;1.90;1.10;;;16.00;99.90;;;;;;4991375;28;20351;-70
2023/08/06 12:49:51;;;;;;;1.88;1.20;;;16.10;99.90;;;;;;5000703;28;20180;-71
2023/08/06 12:52:22;;;;;;;2.75;1.17;;;16.00;99.90;;;;;;4981469;28;20200;-69